createdAt,value
2019-05-15T00:00:38.655Z,1.60
2019-05-15T00:01:41.086Z,1.60
2019-05-15T00:02:38.843Z,1.80
2019-05-15T00:03:39.159Z,1.60
2019-05-15T00:04:38.369Z,1.60
2019-05-15T00:05:39.036Z,1.40
2019-05-15T00:06:38.959Z,1.70
2019-05-15T00:07:38.814Z,1.50
2019-05-15T00:08:38.612Z,1.90
2019-05-15T00:09:39.259Z,1.60
2019-05-15T00:10:38.893Z,1.70
2019-05-15T00:11:38.782Z,1.90
2019-05-15T00:12:39.205Z,2.10
2019-05-15T00:13:38.651Z,1.80
2019-05-15T00:14:38.730Z,1.80
2019-05-15T00:15:36.530Z,1.90
2019-05-15T00:16:38.657Z,2.00
2019-05-15T00:17:39.061Z,2.10
2019-05-15T00:18:38.788Z,1.50
2019-05-15T00:19:38.844Z,1.90
2019-05-15T00:20:39.114Z,1.90
2019-05-15T00:21:38.306Z,1.90
2019-05-15T00:22:38.723Z,2.50
2019-05-15T00:23:38.671Z,1.80
2019-05-15T00:24:38.162Z,1.90
2019-05-15T00:25:39.060Z,1.80
2019-05-15T00:26:38.376Z,1.60
2019-05-15T00:27:38.684Z,2.20
2019-05-15T00:28:38.647Z,1.60
2019-05-15T00:29:38.383Z,1.90
2019-05-15T00:30:38.675Z,2.10
2019-05-15T00:31:38.681Z,2.10
2019-05-15T00:32:36.310Z,1.90
2019-05-15T00:33:36.295Z,1.70
2019-05-15T00:34:37.890Z,1.80
2019-05-15T00:35:38.981Z,2.00
2019-05-15T00:36:38.304Z,1.80
2019-05-15T00:37:38.457Z,1.90
2019-05-15T00:38:36.230Z,2.10
2019-05-15T00:39:36.220Z,2.10
2019-05-15T00:40:38.829Z,2.20
2019-05-15T00:41:48.363Z,2.00
2019-05-15T00:42:38.357Z,2.30
2019-05-15T00:43:38.502Z,1.70
2019-05-15T00:44:38.539Z,1.60
2019-05-15T00:45:38.342Z,1.80
2019-05-15T00:46:38.287Z,2.10
2019-05-15T00:47:36.117Z,1.90
2019-05-15T00:48:36.102Z,2.20
2019-05-15T00:49:38.093Z,2.00
2019-05-15T00:50:36.076Z,1.80
2019-05-15T00:51:36.065Z,2.00
2019-05-15T00:52:36.052Z,1.80
2019-05-15T00:53:36.035Z,2.00
2019-05-15T00:54:36.026Z,2.00
2019-05-15T00:55:38.015Z,2.10
2019-05-15T00:56:35.998Z,1.90
2019-05-15T00:57:35.987Z,2.10
2019-05-15T00:58:35.973Z,2.10
2019-05-15T00:59:35.962Z,1.90
2019-05-15T01:00:38.046Z,2.10
2019-05-15T01:01:38.025Z,1.90
2019-05-15T01:02:35.920Z,2.20
2019-05-15T01:03:35.906Z,1.70
2019-05-15T01:04:35.895Z,2.00
2019-05-15T01:05:35.883Z,2.10
2019-05-15T01:06:35.868Z,1.40
2019-05-15T01:07:35.855Z,2.00
2019-05-15T01:08:35.843Z,2.00
2019-05-15T01:09:35.828Z,1.80
2019-05-15T01:10:38.316Z,1.50
2019-05-15T01:11:37.965Z,1.60
2019-05-15T01:12:37.959Z,2.20
2019-05-15T01:13:35.776Z,2.10
2019-05-15T01:14:35.764Z,1.90
2019-05-15T01:15:35.750Z,2.00
2019-05-15T01:16:38.118Z,1.70
2019-05-15T01:17:38.698Z,2.10
2019-05-15T01:18:35.711Z,2.00
2019-05-15T01:19:37.826Z,2.10
2019-05-15T01:20:35.687Z,1.90
2019-05-15T01:21:35.669Z,1.90
2019-05-15T01:22:35.661Z,1.70
2019-05-15T01:23:35.653Z,1.90
2019-05-15T01:24:35.635Z,2.00
2019-05-15T01:25:35.620Z,2.20
2019-05-15T01:26:35.606Z,2.30
2019-05-15T01:27:35.596Z,2.10
2019-05-15T01:28:35.581Z,2.40
2019-05-15T01:29:41.922Z,2.20
2019-05-15T01:30:35.553Z,2.30
2019-05-15T01:31:37.886Z,2.00
2019-05-15T01:32:35.525Z,2.50
2019-05-15T01:33:35.515Z,2.20
2019-05-15T01:34:35.504Z,2.50
2019-05-15T01:35:35.488Z,2.20
2019-05-15T01:36:38.075Z,2.20
2019-05-15T01:37:35.458Z,2.10
2019-05-15T01:38:35.447Z,2.20
2019-05-15T01:39:35.433Z,2.00
2019-05-15T01:40:35.422Z,2.30
2019-05-15T01:41:35.413Z,2.00
2019-05-15T01:42:35.399Z,1.90
2019-05-15T01:43:35.383Z,1.90
2019-05-15T01:44:35.371Z,2.80
2019-05-15T01:45:35.356Z,2.10
2019-05-15T01:46:35.342Z,2.00
2019-05-15T01:47:35.330Z,2.30
2019-05-15T01:48:35.317Z,2.10
2019-05-15T01:49:35.302Z,2.00
2019-05-15T01:50:35.292Z,2.30
2019-05-15T01:51:35.277Z,1.90
2019-05-15T01:52:35.265Z,2.20
2019-05-15T01:53:35.251Z,1.90
2019-05-15T01:54:35.242Z,2.30
2019-05-15T01:55:35.227Z,2.00
2019-05-15T01:56:35.213Z,2.00
2019-05-15T01:57:35.203Z,2.60
2019-05-15T01:58:35.189Z,1.90
2019-05-15T01:59:35.174Z,2.10
2019-05-15T02:00:35.170Z,2.40
2019-05-15T02:01:35.150Z,2.20
2019-05-15T02:02:35.140Z,1.70
2019-05-15T02:03:35.124Z,1.50
2019-05-15T02:04:35.110Z,1.60
2019-05-15T02:05:35.097Z,1.80
2019-05-15T02:06:35.086Z,1.60
2019-05-15T02:07:35.070Z,2.10
2019-05-15T02:08:35.057Z,2.10
2019-05-15T02:09:35.049Z,2.10
2019-05-15T02:10:35.034Z,1.80
2019-05-15T02:11:35.019Z,1.90
2019-05-15T02:12:35.011Z,2.10
2019-05-15T02:13:34.993Z,2.10
2019-05-15T02:14:34.982Z,1.90
2019-05-15T02:15:34.969Z,2.10
2019-05-15T02:16:34.956Z,1.80
2019-05-15T02:17:34.942Z,1.90
2019-05-15T02:18:34.930Z,1.70
2019-05-15T02:19:34.923Z,1.80
2019-05-15T02:20:34.905Z,2.20
2019-05-15T02:21:34.893Z,1.90
2019-05-15T02:22:34.878Z,2.00
2019-05-15T02:23:34.865Z,2.10
2019-05-15T02:24:34.851Z,2.10
2019-05-15T02:25:34.839Z,2.10
2019-05-15T02:26:34.826Z,2.30
2019-05-15T02:27:34.817Z,2.00
2019-05-15T02:28:34.799Z,1.90
2019-05-15T02:29:34.788Z,2.00
2019-05-15T02:30:34.789Z,1.80
2019-05-15T02:31:34.761Z,2.10
2019-05-15T02:32:34.750Z,1.90
2019-05-15T02:33:34.736Z,2.40
2019-05-15T02:34:34.723Z,2.00
2019-05-15T02:35:34.707Z,1.90
2019-05-15T02:36:34.699Z,2.00
2019-05-15T02:37:34.683Z,1.80
2019-05-15T02:38:34.674Z,2.20
2019-05-15T02:39:34.658Z,1.80
2019-05-15T02:40:34.643Z,2.30
2019-05-15T02:41:34.637Z,2.30
2019-05-15T02:42:34.627Z,2.30
2019-05-15T02:43:34.611Z,2.60
2019-05-15T02:44:34.593Z,1.90
2019-05-15T02:45:37.756Z,2.00
2019-05-15T02:46:34.565Z,1.90
2019-05-15T02:47:34.555Z,2.30
2019-05-15T02:48:34.540Z,2.30
2019-05-15T02:49:34.531Z,2.20
2019-05-15T02:50:34.513Z,2.30
2019-05-15T02:51:34.502Z,1.60
2019-05-15T02:52:34.490Z,1.70
2019-05-15T02:53:34.472Z,1.90
2019-05-15T02:54:34.460Z,2.30
2019-05-15T02:55:34.445Z,2.60
2019-05-15T02:56:34.437Z,2.10
2019-05-15T02:57:34.437Z,2.40
2019-05-15T02:58:34.414Z,2.10
2019-05-15T02:59:34.392Z,2.00
2019-05-15T03:00:44.004Z,1.70
2019-05-15T03:01:34.365Z,2.60
2019-05-15T03:02:34.353Z,2.10
2019-05-15T03:03:34.350Z,2.20
2019-05-15T03:04:34.328Z,2.30
2019-05-15T03:05:34.349Z,2.30
2019-05-15T03:06:34.305Z,2.30
2019-05-15T03:07:34.285Z,2.50
2019-05-15T03:08:34.275Z,2.40
2019-05-15T03:09:34.273Z,2.30
2019-05-15T03:10:34.250Z,1.60
2019-05-15T03:11:34.235Z,2.10
2019-05-15T03:12:34.225Z,2.60
2019-05-15T03:13:34.205Z,2.40
2019-05-15T03:14:34.196Z,3.00
2019-05-15T03:15:34.181Z,2.20
2019-05-15T03:16:34.167Z,2.40
2019-05-15T03:17:34.155Z,2.50
2019-05-15T03:18:34.140Z,2.70
2019-05-15T03:19:34.130Z,2.50
2019-05-15T03:20:34.129Z,2.60
2019-05-15T03:21:34.103Z,1.90
2019-05-15T03:22:34.086Z,2.40
2019-05-15T03:23:34.073Z,2.30
2019-05-15T03:24:34.060Z,2.40
2019-05-15T03:25:34.047Z,2.30
2019-05-15T03:26:34.035Z,2.50
2019-05-15T03:27:34.886Z,2.80
2019-05-15T03:28:34.008Z,2.80
2019-05-15T03:29:33.999Z,2.60
2019-05-15T03:31:02.688Z,2.50
2019-05-15T03:31:48.832Z,2.20
2019-05-15T03:32:42.497Z,2.40
2019-05-15T03:33:37.075Z,2.70
2019-05-15T03:34:38.514Z,2.60
2019-05-15T03:35:33.934Z,2.30
2019-05-15T03:36:33.900Z,2.50
2019-05-15T03:37:34.484Z,2.80
2019-05-15T03:38:33.879Z,2.40
2019-05-15T03:39:33.861Z,2.80
2019-05-15T03:40:33.847Z,2.80
2019-05-15T03:41:33.831Z,2.70
2019-05-15T03:42:33.818Z,2.60
2019-05-15T03:43:33.805Z,2.70
2019-05-15T03:44:33.788Z,2.50
2019-05-15T03:45:33.776Z,2.20
2019-05-15T03:46:33.768Z,2.40
2019-05-15T03:47:33.752Z,2.60
2019-05-15T03:48:33.736Z,2.90
2019-05-15T03:49:33.724Z,2.70
2019-05-15T03:50:33.709Z,2.90
2019-05-15T03:51:33.694Z,2.50
2019-05-15T03:52:33.683Z,3.00
2019-05-15T03:53:33.668Z,3.40
2019-05-15T03:54:33.658Z,3.10
2019-05-15T03:55:33.644Z,2.50
2019-05-15T03:56:33.629Z,2.60
2019-05-15T03:57:33.631Z,3.00
2019-05-15T03:58:33.607Z,2.90
2019-05-15T03:59:33.588Z,2.70
2019-05-15T04:00:33.577Z,3.00
2019-05-15T04:01:42.922Z,2.20
2019-05-15T04:02:33.557Z,2.70
2019-05-15T04:03:33.552Z,2.70
2019-05-15T04:04:33.525Z,2.70
2019-05-15T04:05:33.531Z,2.80
2019-05-15T04:06:33.506Z,2.60
2019-05-15T04:07:33.481Z,2.60
2019-05-15T04:08:33.474Z,2.40
2019-05-15T04:09:33.456Z,2.40
2019-05-15T04:10:33.445Z,2.30
2019-05-15T04:11:33.444Z,2.60
2019-05-15T04:12:33.418Z,2.40
2019-05-15T04:13:33.415Z,2.80
2019-05-15T04:14:33.390Z,3.20
2019-05-15T04:15:33.381Z,3.00
2019-05-15T04:16:33.376Z,2.80
2019-05-15T04:17:33.350Z,2.80
2019-05-15T04:18:33.337Z,2.70
2019-05-15T04:19:33.325Z,2.70
2019-05-15T04:20:33.355Z,3.10
2019-05-15T04:21:33.326Z,2.90
2019-05-15T04:22:33.285Z,3.00
2019-05-15T04:23:33.304Z,2.90
2019-05-15T04:24:33.279Z,3.20
2019-05-15T04:25:33.262Z,2.50
2019-05-15T04:26:33.309Z,3.00
2019-05-15T04:27:33.234Z,2.90
2019-05-15T04:28:33.211Z,3.10
2019-05-15T04:29:33.191Z,3.10
2019-05-15T04:30:33.180Z,2.70
2019-05-15T04:31:50.352Z,3.10
2019-05-15T04:32:33.152Z,2.60
2019-05-15T04:33:33.140Z,2.80
2019-05-15T04:34:33.139Z,2.80
2019-05-15T04:35:33.114Z,3.10
2019-05-15T04:36:33.102Z,2.80
2019-05-15T04:37:33.087Z,3.20
2019-05-15T04:38:33.078Z,2.60
2019-05-15T04:39:33.095Z,2.80
2019-05-15T04:40:33.047Z,3.30
2019-05-15T04:41:33.032Z,2.70
2019-05-15T04:42:33.028Z,2.80
2019-05-15T04:43:41.298Z,3.20
2019-05-15T04:44:32.998Z,2.90
2019-05-15T04:45:35.179Z,2.40
2019-05-15T04:46:32.968Z,2.80
2019-05-15T04:47:32.960Z,2.60
2019-05-15T04:48:32.945Z,3.10
2019-05-15T04:49:32.928Z,2.70
2019-05-15T04:50:32.912Z,2.50
2019-05-15T04:51:32.901Z,3.00
2019-05-15T04:52:32.888Z,2.80
2019-05-15T04:53:33.504Z,2.80
2019-05-15T04:54:32.860Z,2.90
2019-05-15T04:55:32.847Z,2.60
2019-05-15T04:56:32.833Z,3.00
2019-05-15T04:57:34.314Z,3.10
2019-05-15T04:58:32.805Z,2.60
2019-05-15T04:59:32.794Z,2.90
2019-05-15T05:00:32.778Z,3.20
2019-05-15T05:01:32.769Z,3.10
2019-05-15T05:02:32.756Z,2.90
2019-05-15T05:03:34.547Z,3.20
2019-05-15T05:04:32.728Z,2.70
2019-05-15T05:05:32.712Z,3.40
2019-05-15T05:06:32.696Z,3.30
2019-05-15T05:07:32.692Z,3.10
2019-05-15T05:08:32.675Z,2.90
2019-05-15T05:09:32.657Z,3.00
2019-05-15T05:10:32.648Z,3.00
2019-05-15T05:11:32.631Z,3.20
2019-05-15T05:12:32.620Z,3.00
2019-05-15T05:13:32.604Z,3.00
2019-05-15T05:14:32.592Z,2.70
2019-05-15T05:15:32.579Z,2.90
2019-05-15T05:16:32.563Z,3.10
2019-05-15T05:17:32.553Z,3.00
2019-05-15T05:18:32.538Z,3.20
2019-05-15T05:19:32.524Z,3.00
2019-05-15T05:20:32.513Z,3.10
2019-05-15T05:21:32.497Z,2.80
2019-05-15T05:22:32.505Z,3.00
2019-05-15T05:23:32.475Z,3.00
2019-05-15T05:24:32.460Z,3.40
2019-05-15T05:25:32.447Z,2.90
2019-05-15T05:26:32.432Z,3.00
2019-05-15T05:27:32.415Z,2.90
2019-05-15T05:28:32.404Z,3.00
2019-05-15T05:29:32.389Z,2.80
2019-05-15T05:30:32.379Z,2.90
2019-05-15T05:31:32.372Z,3.20
2019-05-15T05:32:35.278Z,3.00
2019-05-15T05:33:32.339Z,3.20
2019-05-15T05:34:32.326Z,3.30
2019-05-15T05:35:32.311Z,3.00
2019-05-15T05:36:32.299Z,2.80
2019-05-15T05:37:32.289Z,3.70
2019-05-15T05:38:32.272Z,2.60
2019-05-15T05:39:32.259Z,3.10
2019-05-15T05:40:32.248Z,3.30
2019-05-15T05:41:32.237Z,2.90
2019-05-15T05:42:32.219Z,3.30
2019-05-15T05:43:32.207Z,2.90
2019-05-15T05:44:32.192Z,3.50
2019-05-15T05:45:32.178Z,3.50
2019-05-15T05:46:32.168Z,3.00
2019-05-15T05:47:32.155Z,3.20
2019-05-15T05:48:32.142Z,3.40
2019-05-15T05:49:32.127Z,3.00
2019-05-15T05:50:32.114Z,3.20
2019-05-15T05:51:32.103Z,2.90
2019-05-15T05:52:32.088Z,3.60
2019-05-15T05:53:32.075Z,3.20
2019-05-15T05:54:32.063Z,3.30
2019-05-15T05:55:32.056Z,3.20
2019-05-15T05:56:32.036Z,3.60
2019-05-15T05:57:32.022Z,2.90
2019-05-15T05:58:32.011Z,3.30
2019-05-15T05:59:31.997Z,3.30
2019-05-15T06:00:31.987Z,3.60
2019-05-15T06:01:31.971Z,3.00
2019-05-15T06:02:43.792Z,3.60
2019-05-15T06:03:31.950Z,3.50
2019-05-15T06:04:31.933Z,2.60
2019-05-15T06:05:31.918Z,3.30
2019-05-15T06:06:31.908Z,3.20
2019-05-15T06:07:31.891Z,3.30
2019-05-15T06:08:31.878Z,2.90
2019-05-15T06:09:31.865Z,3.20
2019-05-15T06:10:31.855Z,2.60
2019-05-15T06:11:31.839Z,3.00
2019-05-15T06:12:31.829Z,3.40
2019-05-15T06:13:31.813Z,3.00
2019-05-15T06:14:31.802Z,3.00
2019-05-15T06:15:31.788Z,3.00
2019-05-15T06:16:31.779Z,3.30
2019-05-15T06:17:31.771Z,2.80
2019-05-15T06:18:31.757Z,3.00
2019-05-15T06:19:31.745Z,3.20
2019-05-15T06:20:31.725Z,2.80
2019-05-15T06:21:31.711Z,2.90
2019-05-15T06:22:31.698Z,2.90
2019-05-15T06:23:34.917Z,2.80
2019-05-15T06:24:31.675Z,2.70
2019-05-15T06:25:31.665Z,3.10
2019-05-15T06:26:31.647Z,3.10
2019-05-15T06:27:31.638Z,3.00
2019-05-15T06:28:31.631Z,2.90
2019-05-15T06:29:31.610Z,2.60
2019-05-15T06:30:31.595Z,3.20
2019-05-15T06:31:31.596Z,2.60
2019-05-15T06:32:31.575Z,3.10
2019-05-15T06:33:31.559Z,2.60
2019-05-15T06:34:31.550Z,3.10
2019-05-15T06:35:31.560Z,2.80
2019-05-15T06:36:31.526Z,3.40
2019-05-15T06:37:31.521Z,2.80
2019-05-15T06:38:31.496Z,3.10
2019-05-15T06:39:31.487Z,2.80
2019-05-15T06:40:31.472Z,3.00
2019-05-15T06:41:33.921Z,3.00
2019-05-15T06:42:31.448Z,3.30
2019-05-15T06:43:31.440Z,3.40
2019-05-15T06:44:31.425Z,3.20
2019-05-15T06:45:31.413Z,3.30
2019-05-15T06:46:31.401Z,2.90
2019-05-15T06:47:31.390Z,3.40
2019-05-15T06:48:31.385Z,2.50
2019-05-15T06:49:31.364Z,3.00
2019-05-15T06:50:31.351Z,2.70
2019-05-15T06:51:31.346Z,3.30
2019-05-15T06:52:31.328Z,2.80
2019-05-15T06:53:31.316Z,3.00
2019-05-15T06:54:31.303Z,3.20
2019-05-15T06:55:31.291Z,3.20
2019-05-15T06:56:31.281Z,3.10
2019-05-15T06:57:31.281Z,3.20
2019-05-15T06:58:31.257Z,2.90
2019-05-15T06:59:31.243Z,3.00
2019-05-15T07:00:31.232Z,3.30
2019-05-15T07:01:31.219Z,3.30
2019-05-15T07:02:31.212Z,3.50
2019-05-15T07:03:31.201Z,3.60
2019-05-15T07:04:31.188Z,3.10
2019-05-15T07:05:31.195Z,3.40
2019-05-15T07:06:31.163Z,3.20
2019-05-15T07:07:31.151Z,3.20
2019-05-15T07:08:31.141Z,3.00
2019-05-15T07:09:31.123Z,2.90
2019-05-15T07:10:31.111Z,3.50
2019-05-15T07:11:31.102Z,3.30
2019-05-15T07:12:31.088Z,2.80
2019-05-15T07:13:31.079Z,3.00
2019-05-15T07:14:31.068Z,3.10
2019-05-15T07:15:31.052Z,3.30
2019-05-15T07:16:31.043Z,3.30
2019-05-15T07:17:31.036Z,3.20
2019-05-15T07:18:31.016Z,3.80
2019-05-15T07:19:31.011Z,3.00
2019-05-15T07:20:31.005Z,3.30
2019-05-15T07:21:30.992Z,3.50
2019-05-15T07:22:30.975Z,3.60
2019-05-15T07:23:30.960Z,3.20
2019-05-15T07:24:30.957Z,3.10
2019-05-15T07:25:30.936Z,3.60
2019-05-15T07:26:30.927Z,3.30
2019-05-15T07:27:30.912Z,3.80
2019-05-15T07:28:30.903Z,3.40
2019-05-15T07:29:30.889Z,3.60
2019-05-15T07:30:30.878Z,2.80
2019-05-15T07:31:30.867Z,3.40
2019-05-15T07:32:30.855Z,2.90
2019-05-15T07:33:39.713Z,3.30
2019-05-15T07:34:30.834Z,3.10
2019-05-15T07:35:30.822Z,2.90
2019-05-15T07:36:30.807Z,3.00
2019-05-15T07:37:30.797Z,3.50
2019-05-15T07:38:30.785Z,3.70
2019-05-15T07:39:30.777Z,3.00
2019-05-15T07:40:30.765Z,3.80
2019-05-15T07:41:30.750Z,3.30
2019-05-15T07:42:30.741Z,3.40
2019-05-15T07:43:30.732Z,3.70
2019-05-15T07:44:30.721Z,3.50
2019-05-15T07:45:30.708Z,3.60
2019-05-15T07:46:30.695Z,3.50
2019-05-15T07:47:30.680Z,3.80
2019-05-15T07:48:30.672Z,3.30
2019-05-15T07:49:30.659Z,3.60
2019-05-15T07:50:30.647Z,3.00
2019-05-15T07:51:30.643Z,2.90
2019-05-15T07:52:30.628Z,3.00
2019-05-15T07:53:30.612Z,3.20
2019-05-15T07:54:30.604Z,2.70
2019-05-15T07:55:30.593Z,3.60
2019-05-15T07:56:30.583Z,3.20
2019-05-15T07:57:30.570Z,3.00
2019-05-15T07:58:30.557Z,2.70
2019-05-15T07:59:30.547Z,3.10
2019-05-15T08:00:30.537Z,2.90
2019-05-15T08:01:30.520Z,3.10
2019-05-15T08:02:30.513Z,3.30
2019-05-15T08:03:30.501Z,3.10
2019-05-15T08:04:33.109Z,3.30
2019-05-15T08:05:30.481Z,2.80
2019-05-15T08:06:30.466Z,3.00
2019-05-15T08:07:30.488Z,3.10
2019-05-15T08:08:30.454Z,2.90
2019-05-15T08:09:30.433Z,2.90
2019-05-15T08:10:30.430Z,2.80
2019-05-15T08:11:30.417Z,2.80
2019-05-15T08:12:30.403Z,2.90
2019-05-15T08:13:30.392Z,2.90
2019-05-15T08:14:30.401Z,3.10
2019-05-15T08:15:30.368Z,3.10
2019-05-15T08:16:30.357Z,2.80
2019-05-15T08:17:30.346Z,3.20
2019-05-15T08:18:30.338Z,2.90
2019-05-15T08:19:30.352Z,3.60
2019-05-15T08:20:30.316Z,3.00
2019-05-15T08:21:30.304Z,3.00
2019-05-15T08:22:30.291Z,2.80
2019-05-15T08:23:30.286Z,3.10
2019-05-15T08:24:30.280Z,3.20
2019-05-15T08:25:35.159Z,2.90
2019-05-15T08:26:30.248Z,3.40
2019-05-15T08:27:30.247Z,2.90
2019-05-15T08:28:30.230Z,3.10
2019-05-15T08:29:30.222Z,3.10
2019-05-15T08:30:30.207Z,2.80
2019-05-15T08:31:30.205Z,2.80
2019-05-15T08:32:30.187Z,3.20
2019-05-15T08:33:30.178Z,2.90
2019-05-15T08:34:30.166Z,3.40
2019-05-15T08:35:30.158Z,3.00
2019-05-15T08:36:31.386Z,2.90
2019-05-15T08:37:30.135Z,2.90
2019-05-15T08:38:30.125Z,2.30
2019-05-15T08:39:30.115Z,3.30
2019-05-15T08:40:30.105Z,3.50
2019-05-15T08:41:30.096Z,2.60
2019-05-15T08:42:32.145Z,2.90
2019-05-15T08:43:31.422Z,3.00
2019-05-15T08:44:30.061Z,3.20
2019-05-15T08:45:30.055Z,3.10
2019-05-15T08:46:30.050Z,3.20
2019-05-15T08:47:30.053Z,2.80
2019-05-15T08:48:32.613Z,3.10
2019-05-15T08:49:30.014Z,2.90
2019-05-15T08:50:30.002Z,2.70
2019-05-15T08:51:29.992Z,3.30
2019-05-15T08:52:29.981Z,3.40
2019-05-15T08:53:29.973Z,3.00
2019-05-15T08:54:29.962Z,3.20
2019-05-15T08:55:29.953Z,3.10
2019-05-15T08:56:29.945Z,2.90
2019-05-15T08:57:29.935Z,3.30
2019-05-15T08:58:29.923Z,2.60
2019-05-15T08:59:29.914Z,3.20
2019-05-15T09:00:29.902Z,3.00
2019-05-15T09:01:29.891Z,2.90
2019-05-15T09:02:29.881Z,3.10
2019-05-15T09:03:29.870Z,2.40
2019-05-15T09:04:34.504Z,2.40
2019-05-15T09:05:29.856Z,2.90
2019-05-15T09:06:29.842Z,2.90
2019-05-15T09:07:29.829Z,2.90
2019-05-15T09:08:29.819Z,2.60
2019-05-15T09:09:29.807Z,2.70
2019-05-15T09:10:29.800Z,2.60
2019-05-15T09:11:29.789Z,2.50
2019-05-15T09:12:29.777Z,2.90
2019-05-15T09:13:29.769Z,3.30
2019-05-15T09:14:29.758Z,3.30
2019-05-15T09:15:29.748Z,2.70
2019-05-15T09:16:29.739Z,3.30
2019-05-15T09:17:29.729Z,3.30
2019-05-15T09:18:29.724Z,3.00
2019-05-15T09:19:29.706Z,2.90
2019-05-15T09:20:29.701Z,2.70
2019-05-15T09:21:29.687Z,3.10
2019-05-15T09:22:29.688Z,2.70
2019-05-15T09:23:29.671Z,3.00
2019-05-15T09:24:29.658Z,3.40
2019-05-15T09:25:29.646Z,3.10
2019-05-15T09:26:29.640Z,3.00
2019-05-15T09:27:29.629Z,2.90
2019-05-15T09:28:29.872Z,2.70
2019-05-15T09:29:29.611Z,3.10
2019-05-15T09:30:29.597Z,3.20
2019-05-15T09:31:29.587Z,3.10
2019-05-15T09:32:29.576Z,2.30
2019-05-15T09:33:29.589Z,2.90
2019-05-15T09:34:46.398Z,2.30
2019-05-15T09:35:29.548Z,2.70
2019-05-15T09:36:29.539Z,2.90
2019-05-15T09:37:29.525Z,2.80
2019-05-15T09:38:29.531Z,2.70
2019-05-15T09:39:29.507Z,2.60
2019-05-15T09:40:42.541Z,3.00
2019-05-15T09:41:29.486Z,2.60
2019-05-15T09:42:29.477Z,3.20
2019-05-15T09:43:29.467Z,3.00
2019-05-15T09:44:29.459Z,2.50
2019-05-15T09:45:29.444Z,2.70
2019-05-15T09:46:29.441Z,2.90
2019-05-15T09:47:29.802Z,2.60
2019-05-15T09:48:29.419Z,2.60
2019-05-15T09:49:29.417Z,2.90
2019-05-15T09:50:29.399Z,2.80
2019-05-15T09:51:29.389Z,2.30
2019-05-15T09:52:30.186Z,2.30
2019-05-15T09:53:29.368Z,2.40
2019-05-15T09:54:29.481Z,2.40
2019-05-15T09:55:29.350Z,2.50
2019-05-15T09:56:29.336Z,2.70
2019-05-15T09:57:30.197Z,2.30
2019-05-15T09:58:30.219Z,2.90
2019-05-15T09:59:29.307Z,2.80
2019-05-15T10:00:29.453Z,2.40
2019-05-15T10:01:29.286Z,2.60
2019-05-15T10:02:29.276Z,2.50
2019-05-15T10:03:29.273Z,2.40
2019-05-15T10:04:29.258Z,2.40
2019-05-15T10:05:29.246Z,2.50
2019-05-15T10:06:29.240Z,2.20
2019-05-15T10:07:29.227Z,2.40
2019-05-15T10:08:29.475Z,2.80
2019-05-15T10:09:29.211Z,2.20
2019-05-15T10:10:29.200Z,1.90
2019-05-15T10:11:29.183Z,2.50
2019-05-15T10:12:34.497Z,2.60
2019-05-15T10:13:29.161Z,2.50
2019-05-15T10:14:29.739Z,2.30
2019-05-15T10:15:29.143Z,2.90
2019-05-15T10:16:29.130Z,2.30
2019-05-15T10:17:29.236Z,3.10
2019-05-15T10:18:29.114Z,2.40
2019-05-15T10:19:29.234Z,2.80
2019-05-15T10:20:29.283Z,3.00
2019-05-15T10:21:32.417Z,2.90
2019-05-15T10:22:29.069Z,2.20
2019-05-15T10:23:29.433Z,2.40
2019-05-15T10:24:29.053Z,2.70
2019-05-15T10:25:29.037Z,2.40
2019-05-15T10:26:29.031Z,3.10
2019-05-15T10:27:29.019Z,2.10
2019-05-15T10:28:29.503Z,2.80
2019-05-15T10:29:28.996Z,2.30
2019-05-15T10:30:29.004Z,3.10
2019-05-15T10:31:28.982Z,2.60
2019-05-15T10:32:29.245Z,3.20
2019-05-15T10:33:29.562Z,2.60
2019-05-15T10:34:29.006Z,2.70
2019-05-15T10:35:31.681Z,2.40
2019-05-15T10:36:28.930Z,2.40
2019-05-15T10:37:28.914Z,2.80
2019-05-15T10:38:28.910Z,2.60
2019-05-15T10:39:28.993Z,2.70
2019-05-15T10:40:29.758Z,2.30
2019-05-15T10:41:28.878Z,2.60
2019-05-15T10:42:29.130Z,2.80
2019-05-15T10:43:28.944Z,2.80
2019-05-15T10:44:28.844Z,2.60
2019-05-15T10:45:29.616Z,2.10
2019-05-15T10:46:28.824Z,2.70
2019-05-15T10:47:29.412Z,2.50
2019-05-15T10:48:29.466Z,2.40
2019-05-15T10:49:28.794Z,2.20
2019-05-15T10:50:28.784Z,2.70
2019-05-15T10:51:28.841Z,2.00
2019-05-15T10:52:28.800Z,2.20
2019-05-15T10:53:29.665Z,2.60
2019-05-15T10:54:29.377Z,2.40
2019-05-15T10:55:28.944Z,2.70
2019-05-15T10:56:29.275Z,2.90
2019-05-15T10:57:28.717Z,2.50
2019-05-15T10:58:28.794Z,2.50
2019-05-15T10:59:28.699Z,2.40
2019-05-15T11:00:28.773Z,2.60
2019-05-15T11:01:28.679Z,2.90
2019-05-15T11:02:29.094Z,2.30
2019-05-15T11:03:29.770Z,2.80
2019-05-15T11:04:28.940Z,2.30
2019-05-15T11:05:40.706Z,2.70
2019-05-15T11:06:28.904Z,2.50
2019-05-15T11:07:28.623Z,2.70
2019-05-15T11:08:29.135Z,2.30
2019-05-15T11:09:28.797Z,2.80
2019-05-15T11:10:29.063Z,2.70
2019-05-15T11:11:28.583Z,2.90
2019-05-15T11:12:29.246Z,2.60
2019-05-15T11:13:28.959Z,2.60
2019-05-15T11:14:28.799Z,2.20
2019-05-15T11:15:29.117Z,2.80
2019-05-15T11:16:28.536Z,2.90
2019-05-15T11:17:28.677Z,3.10
2019-05-15T11:18:30.846Z,2.80
2019-05-15T11:19:35.684Z,2.70
2019-05-15T11:20:28.497Z,2.80
2019-05-15T11:21:28.490Z,2.40
2019-05-15T11:22:29.899Z,3.00
2019-05-15T11:23:29.266Z,2.40
2019-05-15T11:24:32.271Z,2.70
2019-05-15T11:25:30.139Z,3.20
2019-05-15T11:26:33.090Z,2.60
2019-05-15T11:27:31.365Z,2.50
2019-05-15T11:28:31.522Z,2.60
2019-05-15T11:29:28.413Z,2.60
2019-05-15T11:30:28.404Z,2.80
2019-05-15T11:31:28.791Z,2.70
2019-05-15T11:32:29.394Z,2.30
2019-05-15T11:33:29.202Z,2.70
2019-05-15T11:34:29.037Z,2.40
2019-05-15T11:35:28.589Z,2.20
2019-05-15T11:36:28.939Z,2.80
2019-05-15T11:37:28.454Z,2.10
2019-05-15T11:38:28.955Z,2.90
2019-05-15T11:39:28.914Z,2.60
2019-05-15T11:40:28.510Z,2.70
2019-05-15T11:41:29.460Z,2.90
2019-05-15T11:42:28.954Z,3.00
2019-05-15T11:43:29.129Z,2.90
2019-05-15T11:44:28.443Z,2.30
2019-05-15T11:45:29.037Z,2.60
2019-05-15T11:46:29.128Z,3.10
2019-05-15T11:47:28.250Z,2.40
2019-05-15T11:48:29.922Z,2.50
2019-05-15T11:49:29.045Z,2.40
2019-05-15T11:50:29.287Z,2.10
2019-05-15T11:51:29.070Z,2.90
2019-05-15T11:52:29.396Z,2.80
2019-05-15T11:53:28.503Z,2.20
2019-05-15T11:54:28.434Z,2.10
2019-05-15T11:55:29.163Z,2.20
2019-05-15T11:56:29.619Z,2.40
2019-05-15T11:57:39.108Z,2.60
2019-05-15T11:58:28.325Z,2.30
2019-05-15T11:59:30.057Z,2.90
2019-05-15T12:00:30.316Z,2.70
2019-05-15T12:01:28.758Z,2.80
2019-05-15T12:02:29.322Z,2.70
2019-05-15T12:03:29.142Z,2.50
2019-05-15T12:04:33.750Z,2.50
2019-05-15T12:05:28.775Z,2.70
2019-05-15T12:06:29.289Z,2.20
2019-05-15T12:07:29.002Z,2.60
2019-05-15T12:08:29.360Z,2.00
2019-05-15T12:09:28.325Z,2.60
2019-05-15T12:10:28.908Z,2.30
2019-05-15T12:11:36.255Z,2.70
2019-05-15T12:12:31.798Z,2.40
2019-05-15T12:13:28.105Z,2.40
2019-05-15T12:14:29.643Z,2.70
2019-05-15T12:15:28.103Z,3.00
2019-05-15T12:16:28.993Z,2.60
2019-05-15T12:17:28.572Z,2.80
2019-05-15T12:18:28.619Z,2.70
2019-05-15T12:19:29.229Z,2.70
2019-05-15T12:20:28.581Z,2.60
2019-05-15T12:21:28.568Z,2.00
2019-05-15T12:22:28.978Z,2.40
2019-05-15T12:23:29.094Z,2.80
2019-05-15T12:24:35.038Z,2.50
2019-05-15T12:25:31.434Z,2.80
2019-05-15T12:26:29.178Z,2.20
2019-05-15T12:27:28.370Z,2.40
2019-05-15T12:28:29.573Z,2.30
2019-05-15T12:29:28.548Z,2.70
2019-05-15T12:30:29.612Z,2.20
2019-05-15T12:31:27.836Z,2.20
2019-05-15T12:32:35.794Z,2.60
2019-05-15T12:33:28.916Z,2.30
2019-05-15T12:34:28.913Z,2.40
2019-05-15T12:35:29.510Z,2.60
2019-05-15T12:37:28.495Z,2.50
2019-05-15T12:38:28.871Z,2.40
2019-05-15T12:39:24.792Z,2.50
2019-05-15T12:39:30.302Z,2.60
2019-05-15T12:59:44.763Z,2.20
2019-05-15T13:00:29.852Z,2.00
2019-05-15T13:01:29.530Z,2.20
2019-05-15T13:02:28.055Z,2.60
2019-05-15T13:03:28.899Z,2.70
2019-05-15T13:04:28.420Z,2.40
2019-05-15T13:05:28.735Z,2.40
2019-05-15T13:06:28.521Z,2.90
2019-05-15T13:07:28.563Z,2.70
2019-05-15T13:08:29.051Z,2.20
2019-05-15T13:09:27.831Z,2.70
2019-05-15T13:10:28.742Z,2.30
2019-05-15T13:11:28.471Z,2.90
2019-05-15T13:12:28.789Z,2.50
2019-05-15T13:13:28.321Z,2.40
2019-05-15T13:14:28.368Z,2.30
2019-05-15T13:15:28.221Z,2.00
2019-05-15T13:16:28.177Z,2.80
2019-05-15T13:17:29.135Z,2.20
2019-05-15T13:18:28.573Z,2.40
2019-05-15T13:19:28.428Z,2.80
2019-05-15T13:20:28.831Z,2.10
2019-05-15T13:21:29.479Z,2.20
2019-05-15T13:22:28.118Z,2.80
2019-05-15T13:23:28.498Z,2.60
2019-05-15T13:24:28.446Z,2.40
2019-05-15T13:25:27.981Z,2.40
2019-05-15T13:26:27.341Z,3.00
2019-05-15T13:27:27.334Z,2.30
2019-05-15T13:28:28.963Z,2.40
2019-05-15T13:29:28.962Z,2.10
2019-05-15T13:30:29.967Z,2.00
2019-05-15T13:31:28.487Z,2.50
2019-05-15T13:32:28.490Z,2.40
2019-05-15T13:33:27.276Z,2.70
2019-05-15T13:34:30.263Z,2.10
2019-05-15T13:35:28.505Z,2.30
2019-05-15T13:36:28.838Z,2.40
2019-05-15T13:37:30.744Z,2.30